sensor_id;sensor_type;location;lat;lon;timestamp;P1;durP1;ratioP1;P2;durP2;ratioP2
1785;SDS011;890;48.158;11.540;2022-10-16T00:00:41;3.70;;;3.10;;
1785;SDS011;890;48.158;11.540;2022-10-16T00:03:08;4.80;;;2.90;;
1785;SDS011;890;48.158;11.540;2022-10-16T00:05:38;3.40;;;2.90;;
1785;SDS011;890;48.158;11.540;2022-10-16T00:08:06;3.57;;;3.20;;
1785;SDS011;890;48.158;11.540;2022-10-16T00:10:32;4.40;;;3.00;;
1785;SDS011;890;48.158;11.540;2022-10-16T00:12:58;3.40;;;3.10;;
1785;SDS011;890;48.158;11.540;2022-10-16T00:15:24;3.23;;;2.93;;
1785;SDS011;890;48.158;11.540;2022-10-16T00:17:49;3.23;;;2.90;;
1785;SDS011;890;48.158;11.540;2022-10-16T00:20:15;4.43;;;2.90;;
1785;SDS011;890;48.158;11.540;2022-10-16T00:22:40;5.43;;;3.17;;
1785;SDS011;890;48.158;11.540;2022-10-16T00:25:06;5.30;;;3.20;;
1785;SDS011;890;48.158;11.540;2022-10-16T00:27:32;4.53;;;3.57;;
1785;SDS011;890;48.158;11.540;2022-10-16T00:29:58;3.77;;;3.33;;
1785;SDS011;890;48.158;11.540;2022-10-16T00:32:24;3.10;;;2.80;;
1785;SDS011;890;48.158;11.540;2022-10-16T00:34:50;3.60;;;3.30;;
1785;SDS011;890;48.158;11.540;2022-10-16T00:37:15;6.73;;;3.23;;
1785;SDS011;890;48.158;11.540;2022-10-16T00:39:41;3.47;;;3.00;;
1785;SDS011;890;48.158;11.540;2022-10-16T00:42:06;5.70;;;3.23;;
1785;SDS011;890;48.158;11.540;2022-10-16T00:44:41;3.20;;;2.90;;
1785;SDS011;890;48.158;11.540;2022-10-16T00:47:10;3.40;;;3.10;;
1785;SDS011;890;48.158;11.540;2022-10-16T00:49:40;3.50;;;2.87;;
1785;SDS011;890;48.158;11.540;2022-10-16T00:52:06;5.27;;;3.10;;
1785;SDS011;890;48.158;11.540;2022-10-16T00:54:31;3.17;;;2.87;;
1785;SDS011;890;48.158;11.540;2022-10-16T00:57:00;3.33;;;2.80;;
1785;SDS011;890;48.158;11.540;2022-10-16T01:01:58;3.20;;;2.90;;
1785;SDS011;890;48.158;11.540;2022-10-16T01:04:25;3.97;;;2.70;;
1785;SDS011;890;48.158;11.540;2022-10-16T01:12:09;3.60;;;2.87;;
1785;SDS011;890;48.158;11.540;2022-10-16T01:20:10;2.90;;;2.70;;
1785;SDS011;890;48.158;11.540;2022-10-16T01:25:34;4.70;;;2.50;;
1785;SDS011;890;48.158;11.540;2022-10-16T01:28:12;2.27;;;2.07;;
1785;SDS011;890;48.158;11.540;2022-10-16T01:30:41;2.70;;;2.00;;
1785;SDS011;890;48.158;11.540;2022-10-16T01:33:10;3.50;;;2.13;;
1785;SDS011;890;48.158;11.540;2022-10-16T01:35:47;4.50;;;2.70;;
1785;SDS011;890;48.158;11.540;2022-10-16T01:40:58;3.37;;;2.63;;
1785;SDS011;890;48.158;11.540;2022-10-16T01:43:28;3.37;;;2.80;;
1785;SDS011;890;48.158;11.540;2022-10-16T01:45:59;3.07;;;2.87;;
1785;SDS011;890;48.158;11.540;2022-10-16T01:48:26;3.17;;;2.63;;
1785;SDS011;890;48.158;11.540;2022-10-16T01:50:55;5.23;;;2.70;;
1785;SDS011;890;48.158;11.540;2022-10-16T01:53:28;2.53;;;2.33;;
1785;SDS011;890;48.158;11.540;2022-10-16T01:55:54;2.97;;;2.70;;
1785;SDS011;890;48.158;11.540;2022-10-16T01:58:22;2.50;;;2.30;;
1785;SDS011;890;48.158;11.540;2022-10-16T02:00:50;2.27;;;2.07;;
1785;SDS011;890;48.158;11.540;2022-10-16T02:03:17;2.70;;;2.20;;
1785;SDS011;890;48.158;11.540;2022-10-16T02:05:53;2.40;;;2.20;;
1785;SDS011;890;48.158;11.540;2022-10-16T02:08:22;2.40;;;2.20;;
1785;SDS011;890;48.158;11.540;2022-10-16T02:10:51;2.70;;;2.50;;
1785;SDS011;890;48.158;11.540;2022-10-16T02:13:17;2.50;;;2.27;;
1785;SDS011;890;48.158;11.540;2022-10-16T02:15:48;3.37;;;2.30;;
1785;SDS011;890;48.158;11.540;2022-10-16T02:18:14;2.63;;;2.10;;
1785;SDS011;890;48.158;11.540;2022-10-16T02:20:43;2.17;;;2.00;;
1785;SDS011;890;48.158;11.540;2022-10-16T02:23:47;2.20;;;2.00;;
1785;SDS011;890;48.158;11.540;2022-10-16T02:26:30;2.37;;;1.83;;
1785;SDS011;890;48.158;11.540;2022-10-16T02:29:13;2.13;;;2.00;;
1785;SDS011;890;48.158;11.540;2022-10-16T02:31:44;3.20;;;1.80;;
1785;SDS011;890;48.158;11.540;2022-10-16T02:34:13;2.40;;;2.20;;
1785;SDS011;890;48.158;11.540;2022-10-16T02:36:40;1.90;;;1.80;;
1785;SDS011;890;48.158;11.540;2022-10-16T02:39:08;2.73;;;2.20;;
1785;SDS011;890;48.158;11.540;2022-10-16T02:41:34;2.53;;;1.90;;
1785;SDS011;890;48.158;11.540;2022-10-16T02:44:00;3.10;;;2.13;;
1785;SDS011;890;48.158;11.540;2022-10-16T02:46:25;2.90;;;2.00;;
1785;SDS011;890;48.158;11.540;2022-10-16T02:48:51;2.77;;;2.10;;
1785;SDS011;890;48.158;11.540;2022-10-16T02:51:17;2.93;;;2.00;;
1785;SDS011;890;48.158;11.540;2022-10-16T02:53:42;2.90;;;2.30;;
1785;SDS011;890;48.158;11.540;2022-10-16T02:56:08;2.50;;;2.30;;
1785;SDS011;890;48.158;11.540;2022-10-16T02:58:34;4.00;;;2.10;;
1785;SDS011;890;48.158;11.540;2022-10-16T03:00:59;2.43;;;2.20;;
1785;SDS011;890;48.158;11.540;2022-10-16T03:03:25;2.60;;;1.87;;
1785;SDS011;890;48.158;11.540;2022-10-16T03:05:50;2.43;;;2.17;;
1785;SDS011;890;48.158;11.540;2022-10-16T03:08:16;3.83;;;2.07;;
1785;SDS011;890;48.158;11.540;2022-10-16T03:10:42;10.00;;;2.60;;
1785;SDS011;890;48.158;11.540;2022-10-16T03:13:07;3.13;;;1.90;;
1785;SDS011;890;48.158;11.540;2022-10-16T03:15:33;2.30;;;2.10;;
1785;SDS011;890;48.158;11.540;2022-10-16T03:17:59;2.00;;;1.73;;
1785;SDS011;890;48.158;11.540;2022-10-16T03:20:24;3.07;;;2.07;;
1785;SDS011;890;48.158;11.540;2022-10-16T03:22:51;2.10;;;1.90;;
1785;SDS011;890;48.158;11.540;2022-10-16T03:25:16;3.47;;;1.90;;
1785;SDS011;890;48.158;11.540;2022-10-16T03:27:42;3.00;;;1.87;;
1785;SDS011;890;48.158;11.540;2022-10-16T03:30:08;2.40;;;2.20;;
1785;SDS011;890;48.158;11.540;2022-10-16T03:32:34;2.77;;;1.87;;
1785;SDS011;890;48.158;11.540;2022-10-16T03:34:59;2.20;;;2.00;;
1785;SDS011;890;48.158;11.540;2022-10-16T03:37:25;2.50;;;2.10;;
1785;SDS011;890;48.158;11.540;2022-10-16T03:39:51;3.40;;;2.07;;
1785;SDS011;890;48.158;11.540;2022-10-16T03:42:17;2.87;;;2.13;;
1785;SDS011;890;48.158;11.540;2022-10-16T03:44:42;2.03;;;1.93;;
1785;SDS011;890;48.158;11.540;2022-10-16T03:47:08;1.90;;;1.73;;
1785;SDS011;890;48.158;11.540;2022-10-16T03:49:33;2.80;;;2.10;;
1785;SDS011;890;48.158;11.540;2022-10-16T03:51:59;2.33;;;2.10;;
1785;SDS011;890;48.158;11.540;2022-10-16T03:54:24;2.07;;;1.87;;
1785;SDS011;890;48.158;11.540;2022-10-16T03:56:50;4.33;;;2.07;;
1785;SDS011;890;48.158;11.540;2022-10-16T03:59:16;3.73;;;2.50;;
1785;SDS011;890;48.158;11.540;2022-10-16T04:01:41;3.40;;;2.03;;
1785;SDS011;890;48.158;11.540;2022-10-16T04:04:07;4.00;;;1.83;;
1785;SDS011;890;48.158;11.540;2022-10-16T04:06:32;3.27;;;2.03;;
1785;SDS011;890;48.158;11.540;2022-10-16T04:08:58;2.03;;;1.83;;
1785;SDS011;890;48.158;11.540;2022-10-16T04:11:23;2.30;;;2.10;;
1785;SDS011;890;48.158;11.540;2022-10-16T04:13:49;3.83;;;2.20;;
1785;SDS011;890;48.158;11.540;2022-10-16T04:16:15;2.90;;;1.90;;
1785;SDS011;890;48.158;11.540;2022-10-16T04:18:40;2.80;;;2.10;;
1785;SDS011;890;48.158;11.540;2022-10-16T04:21:06;3.07;;;1.97;;
1785;SDS011;890;48.158;11.540;2022-10-16T04:23:32;2.10;;;1.90;;
1785;SDS011;890;48.158;11.540;2022-10-16T04:25:59;2.83;;;1.70;;
1785;SDS011;890;48.158;11.540;2022-10-16T04:28:24;3.57;;;2.50;;
1785;SDS011;890;48.158;11.540;2022-10-16T04:30:50;2.23;;;2.00;;
1785;SDS011;890;48.158;11.540;2022-10-16T04:33:16;4.13;;;2.30;;
1785;SDS011;890;48.158;11.540;2022-10-16T04:35:41;3.27;;;2.27;;
1785;SDS011;890;48.158;11.540;2022-10-16T04:38:07;3.50;;;2.10;;
1785;SDS011;890;48.158;11.540;2022-10-16T04:40:33;2.93;;;2.00;;
1785;SDS011;890;48.158;11.540;2022-10-16T04:43:00;2.80;;;2.50;;
1785;SDS011;890;48.158;11.540;2022-10-16T04:45:27;1.80;;;1.70;;
1785;SDS011;890;48.158;11.540;2022-10-16T04:47:52;2.53;;;1.90;;
1785;SDS011;890;48.158;11.540;2022-10-16T04:50:21;2.70;;;1.90;;
1785;SDS011;890;48.158;11.540;2022-10-16T04:52:46;3.50;;;1.77;;
1785;SDS011;890;48.158;11.540;2022-10-16T04:55:12;2.73;;;2.13;;
1785;SDS011;890;48.158;11.540;2022-10-16T04:57:38;3.30;;;2.30;;
1785;SDS011;890;48.158;11.540;2022-10-16T05:00:03;2.23;;;2.03;;
1785;SDS011;890;48.158;11.540;2022-10-16T05:02:30;2.10;;;2.00;;
1785;SDS011;890;48.158;11.540;2022-10-16T05:04:55;2.90;;;2.00;;
1785;SDS011;890;48.158;11.540;2022-10-16T05:07:21;2.60;;;2.40;;
1785;SDS011;890;48.158;11.540;2022-10-16T05:09:46;2.10;;;1.90;;
1785;SDS011;890;48.158;11.540;2022-10-16T05:12:12;1.73;;;1.60;;
1785;SDS011;890;48.158;11.540;2022-10-16T05:14:38;2.30;;;2.13;;
1785;SDS011;890;48.158;11.540;2022-10-16T05:17:03;2.40;;;2.10;;
1785;SDS011;890;48.158;11.540;2022-10-16T05:19:29;2.30;;;2.10;;
1785;SDS011;890;48.158;11.540;2022-10-16T05:21:54;2.33;;;2.13;;
1785;SDS011;890;48.158;11.540;2022-10-16T05:24:20;2.13;;;1.93;;
1785;SDS011;890;48.158;11.540;2022-10-16T05:26:46;2.77;;;2.10;;
1785;SDS011;890;48.158;11.540;2022-10-16T05:29:11;2.27;;;2.03;;
1785;SDS011;890;48.158;11.540;2022-10-16T05:31:37;2.20;;;2.00;;
1785;SDS011;890;48.158;11.540;2022-10-16T05:34:03;2.40;;;2.20;;
1785;SDS011;890;48.158;11.540;2022-10-16T05:36:28;2.47;;;2.00;;
1785;SDS011;890;48.158;11.540;2022-10-16T05:38:54;3.93;;;1.90;;
1785;SDS011;890;48.158;11.540;2022-10-16T05:41:19;2.47;;;2.00;;
1785;SDS011;890;48.158;11.540;2022-10-16T05:43:49;3.70;;;2.13;;
1785;SDS011;890;48.158;11.540;2022-10-16T05:46:15;2.30;;;2.10;;
1785;SDS011;890;48.158;11.540;2022-10-16T05:48:41;2.23;;;2.03;;
1785;SDS011;890;48.158;11.540;2022-10-16T05:51:08;2.50;;;2.30;;
1785;SDS011;890;48.158;11.540;2022-10-16T05:53:36;2.67;;;2.03;;
1785;SDS011;890;48.158;11.540;2022-10-16T05:56:04;2.60;;;2.40;;
1785;SDS011;890;48.158;11.540;2022-10-16T05:58:31;2.40;;;2.20;;
1785;SDS011;890;48.158;11.540;2022-10-16T06:01:03;2.80;;;2.07;;
1785;SDS011;890;48.158;11.540;2022-10-16T06:03:30;2.40;;;2.10;;
1785;SDS011;890;48.158;11.540;2022-10-16T06:05:56;2.43;;;2.23;;
1785;SDS011;890;48.158;11.540;2022-10-16T06:08:22;3.60;;;2.37;;
1785;SDS011;890;48.158;11.540;2022-10-16T06:10:48;2.20;;;2.00;;
1785;SDS011;890;48.158;11.540;2022-10-16T06:13:24;2.70;;;2.30;;
1785;SDS011;890;48.158;11.540;2022-10-16T06:15:50;2.60;;;2.23;;
1785;SDS011;890;48.158;11.540;2022-10-16T06:18:16;2.53;;;2.33;;
1785;SDS011;890;48.158;11.540;2022-10-16T06:20:41;3.70;;;2.57;;
1785;SDS011;890;48.158;11.540;2022-10-16T06:23:07;2.73;;;2.30;;
1785;SDS011;890;48.158;11.540;2022-10-16T06:25:33;2.70;;;2.50;;
1785;SDS011;890;48.158;11.540;2022-10-16T06:27:58;4.20;;;2.63;;
1785;SDS011;890;48.158;11.540;2022-10-16T06:30:24;2.77;;;2.57;;
1785;SDS011;890;48.158;11.540;2022-10-16T06:32:50;3.13;;;2.83;;
1785;SDS011;890;48.158;11.540;2022-10-16T06:35:16;4.33;;;2.20;;
1785;SDS011;890;48.158;11.540;2022-10-16T06:37:41;2.60;;;2.40;;
1785;SDS011;890;48.158;11.540;2022-10-16T06:40:07;2.70;;;2.50;;
1785;SDS011;890;48.158;11.540;2022-10-16T06:42:33;2.83;;;2.60;;
1785;SDS011;890;48.158;11.540;2022-10-16T06:44:58;6.00;;;3.10;;
1785;SDS011;890;48.158;11.540;2022-10-16T06:47:24;3.23;;;2.50;;
1785;SDS011;890;48.158;11.540;2022-10-16T06:49:50;2.97;;;2.37;;
1785;SDS011;890;48.158;11.540;2022-10-16T06:52:15;3.83;;;2.90;;
1785;SDS011;890;48.158;11.540;2022-10-16T06:54:41;2.63;;;2.43;;
1785;SDS011;890;48.158;11.540;2022-10-16T06:57:06;3.30;;;2.97;;
1785;SDS011;890;48.158;11.540;2022-10-16T06:59:32;6.07;;;3.07;;
1785;SDS011;890;48.158;11.540;2022-10-16T07:01:58;4.77;;;3.47;;
1785;SDS011;890;48.158;11.540;2022-10-16T07:04:23;3.40;;;3.10;;
1785;SDS011;890;48.158;11.540;2022-10-16T07:06:49;3.50;;;3.20;;
1785;SDS011;890;48.158;11.540;2022-10-16T07:12:12;3.53;;;2.93;;
1785;SDS011;890;48.158;11.540;2022-10-16T07:14:38;4.37;;;3.67;;
1785;SDS011;890;48.158;11.540;2022-10-16T07:17:03;3.20;;;2.90;;
1785;SDS011;890;48.158;11.540;2022-10-16T07:19:29;3.40;;;3.10;;
1785;SDS011;890;48.158;11.540;2022-10-16T07:21:55;3.67;;;2.63;;
1785;SDS011;890;48.158;11.540;2022-10-16T07:24:21;4.73;;;3.10;;
1785;SDS011;890;48.158;11.540;2022-10-16T07:26:47;3.47;;;2.90;;
1785;SDS011;890;48.158;11.540;2022-10-16T07:29:14;4.70;;;2.83;;
1785;SDS011;890;48.158;11.540;2022-10-16T07:31:42;4.50;;;3.03;;
1785;SDS011;890;48.158;11.540;2022-10-16T07:34:09;4.90;;;3.20;;
1785;SDS011;890;48.158;11.540;2022-10-16T07:36:36;4.27;;;2.83;;
1785;SDS011;890;48.158;11.540;2022-10-16T07:39:02;4.03;;;3.13;;
1785;SDS011;890;48.158;11.540;2022-10-16T07:41:28;4.23;;;3.60;;
1785;SDS011;890;48.158;11.540;2022-10-16T07:43:54;3.53;;;2.80;;
1785;SDS011;890;48.158;11.540;2022-10-16T07:46:22;3.20;;;2.90;;
1785;SDS011;890;48.158;11.540;2022-10-16T07:48:48;3.97;;;3.43;;
1785;SDS011;890;48.158;11.540;2022-10-16T07:51:14;5.80;;;3.57;;
1785;SDS011;890;48.158;11.540;2022-10-16T07:53:41;3.60;;;3.13;;
1785;SDS011;890;48.158;11.540;2022-10-16T07:56:07;3.60;;;2.90;;
1785;SDS011;890;48.158;11.540;2022-10-16T07:58:33;4.20;;;3.33;;
1785;SDS011;890;48.158;11.540;2022-10-16T08:01:06;4.00;;;2.93;;
1785;SDS011;890;48.158;11.540;2022-10-16T08:03:33;3.40;;;3.10;;
1785;SDS011;890;48.158;11.540;2022-10-16T08:05:59;4.03;;;2.90;;
1785;SDS011;890;48.158;11.540;2022-10-16T08:08:26;4.57;;;3.23;;
1785;SDS011;890;48.158;11.540;2022-10-16T08:10:51;2.80;;;2.50;;
1785;SDS011;890;48.158;11.540;2022-10-16T08:13:17;5.40;;;2.60;;
1785;SDS011;890;48.158;11.540;2022-10-16T08:15:43;4.43;;;2.53;;
1785;SDS011;890;48.158;11.540;2022-10-16T08:18:10;3.27;;;2.43;;
1785;SDS011;890;48.158;11.540;2022-10-16T08:20:37;2.50;;;2.30;;
1785;SDS011;890;48.158;11.540;2022-10-16T08:23:05;6.00;;;2.20;;
1785;SDS011;890;48.158;11.540;2022-10-16T08:25:33;5.53;;;2.50;;
1785;SDS011;890;48.158;11.540;2022-10-16T08:28:00;3.03;;;2.50;;
1785;SDS011;890;48.158;11.540;2022-10-16T08:30:27;6.57;;;2.67;;
1785;SDS011;890;48.158;11.540;2022-10-16T08:32:53;2.27;;;1.97;;
1785;SDS011;890;48.158;11.540;2022-10-16T08:35:19;4.70;;;2.43;;
1785;SDS011;890;48.158;11.540;2022-10-16T08:37:44;2.00;;;1.90;;
1785;SDS011;890;48.158;11.540;2022-10-16T08:48:34;2.13;;;1.77;;
1785;SDS011;890;48.158;11.540;2022-10-16T08:51:08;2.00;;;1.80;;
1785;SDS011;890;48.158;11.540;2022-10-16T08:53:39;2.03;;;1.60;;
1785;SDS011;890;48.158;11.540;2022-10-16T08:56:13;1.83;;;1.60;;
1785;SDS011;890;48.158;11.540;2022-10-16T08:58:39;2.00;;;1.80;;
1785;SDS011;890;48.158;11.540;2022-10-16T09:01:10;1.60;;;1.50;;
1785;SDS011;890;48.158;11.540;2022-10-16T09:06:37;1.50;;;1.33;;
1785;SDS011;890;48.158;11.540;2022-10-16T09:17:19;1.73;;;1.50;;
1785;SDS011;890;48.158;11.540;2022-10-16T09:23:00;1.40;;;1.30;;
1785;SDS011;890;48.158;11.540;2022-10-16T09:25:29;3.10;;;1.50;;
1785;SDS011;890;48.158;11.540;2022-10-16T09:27:56;1.27;;;1.17;;
1785;SDS011;890;48.158;11.540;2022-10-16T09:30:22;1.50;;;1.33;;
1785;SDS011;890;48.158;11.540;2022-10-16T09:32:51;1.63;;;1.37;;
1785;SDS011;890;48.158;11.540;2022-10-16T09:36:18;2.13;;;1.77;;
1785;SDS011;890;48.158;11.540;2022-10-16T09:38:31;1.70;;;1.60;;
1785;SDS011;890;48.158;11.540;2022-10-16T09:40:59;1.80;;;1.70;;
1785;SDS011;890;48.158;11.540;2022-10-16T09:43:39;2.40;;;1.30;;
1785;SDS011;890;48.158;11.540;2022-10-16T09:46:06;3.03;;;2.20;;
1785;SDS011;890;48.158;11.540;2022-10-16T09:48:43;3.00;;;1.93;;
1785;SDS011;890;48.158;11.540;2022-10-16T09:51:18;1.70;;;1.60;;
1785;SDS011;890;48.158;11.540;2022-10-16T09:53:48;1.30;;;1.20;;
1785;SDS011;890;48.158;11.540;2022-10-16T09:56:21;2.07;;;1.93;;
1785;SDS011;890;48.158;11.540;2022-10-16T09:58:52;1.60;;;1.50;;
1785;SDS011;890;48.158;11.540;2022-10-16T10:01:20;2.00;;;1.87;;
1785;SDS011;890;48.158;11.540;2022-10-16T10:03:55;2.10;;;1.90;;
1785;SDS011;890;48.158;11.540;2022-10-16T10:06:27;4.43;;;1.93;;
1785;SDS011;890;48.158;11.540;2022-10-16T10:09:00;2.43;;;2.23;;
1785;SDS011;890;48.158;11.540;2022-10-16T10:11:39;2.43;;;1.70;;
1785;SDS011;890;48.158;11.540;2022-10-16T10:16:46;1.70;;;1.60;;
1785;SDS011;890;48.158;11.540;2022-10-16T10:19:13;2.03;;;1.93;;
1785;SDS011;890;48.158;11.540;2022-10-16T10:21:43;2.03;;;1.80;;
1785;SDS011;890;48.158;11.540;2022-10-16T10:24:13;1.70;;;1.60;;
1785;SDS011;890;48.158;11.540;2022-10-16T10:26:51;1.60;;;1.50;;
1785;SDS011;890;48.158;11.540;2022-10-16T10:32:12;1.63;;;1.40;;
1785;SDS011;890;48.158;11.540;2022-10-16T10:37:35;1.57;;;1.47;;
1785;SDS011;890;48.158;11.540;2022-10-16T10:40:15;1.40;;;1.30;;
1785;SDS011;890;48.158;11.540;2022-10-16T10:43:24;3.53;;;1.60;;
1785;SDS011;890;48.158;11.540;2022-10-16T10:45:52;1.60;;;1.40;;
1785;SDS011;890;48.158;11.540;2022-10-16T10:51:25;1.47;;;1.37;;
1785;SDS011;890;48.158;11.540;2022-10-16T10:54:13;1.87;;;1.60;;
1785;SDS011;890;48.158;11.540;2022-10-16T10:57:02;1.60;;;1.50;;
1785;SDS011;890;48.158;11.540;2022-10-16T11:07:52;1.67;;;1.57;;
1785;SDS011;890;48.158;11.540;2022-10-16T11:10:39;1.47;;;1.37;;
1785;SDS011;890;48.158;11.540;2022-10-16T11:15:58;3.30;;;2.03;;
1785;SDS011;890;48.158;11.540;2022-10-16T11:18:30;2.60;;;1.40;;
1785;SDS011;890;48.158;11.540;2022-10-16T11:21:08;1.40;;;1.30;;
1785;SDS011;890;48.158;11.540;2022-10-16T11:23:40;1.83;;;1.50;;
1785;SDS011;890;48.158;11.540;2022-10-16T11:26:29;1.73;;;1.63;;
1785;SDS011;890;48.158;11.540;2022-10-16T11:29:04;1.47;;;1.37;;
1785;SDS011;890;48.158;11.540;2022-10-16T11:31:47;2.03;;;1.23;;
1785;SDS011;890;48.158;11.540;2022-10-16T11:34:24;1.47;;;1.37;;
1785;SDS011;890;48.158;11.540;2022-10-16T11:36:57;1.63;;;1.00;;
1785;SDS011;890;48.158;11.540;2022-10-16T11:39:24;0.90;;;0.90;;
1785;SDS011;890;48.158;11.540;2022-10-16T11:42:16;1.20;;;1.10;;
1785;SDS011;890;48.158;11.540;2022-10-16T11:47:48;1.43;;;1.33;;
1785;SDS011;890;48.158;11.540;2022-10-16T11:50:20;1.10;;;1.00;;
1785;SDS011;890;48.158;11.540;2022-10-16T11:52:55;1.63;;;0.93;;
1785;SDS011;890;48.158;11.540;2022-10-16T11:55:37;1.40;;;1.30;;
1785;SDS011;890;48.158;11.540;2022-10-16T11:58:16;1.70;;;1.10;;
1785;SDS011;890;48.158;11.540;2022-10-16T12:00:47;1.30;;;1.20;;
1785;SDS011;890;48.158;11.540;2022-10-16T12:08:59;1.57;;;1.43;;
1785;SDS011;890;48.158;11.540;2022-10-16T12:14:03;1.50;;;1.40;;
1785;SDS011;890;48.158;11.540;2022-10-16T12:16:29;2.07;;;1.90;;
1785;SDS011;890;48.158;11.540;2022-10-16T12:19:11;1.70;;;1.60;;
1785;SDS011;890;48.158;11.540;2022-10-16T12:21:41;1.53;;;1.43;;
1785;SDS011;890;48.158;11.540;2022-10-16T12:26:57;2.23;;;2.03;;
1785;SDS011;890;48.158;11.540;2022-10-16T12:29:32;1.33;;;1.23;;
1785;SDS011;890;48.158;11.540;2022-10-16T12:32:02;2.03;;;1.77;;
1785;SDS011;890;48.158;11.540;2022-10-16T12:37:23;2.90;;;1.60;;
1785;SDS011;890;48.158;11.540;2022-10-16T12:39:51;3.37;;;1.60;;
1785;SDS011;890;48.158;11.540;2022-10-16T12:44:53;1.80;;;1.70;;
1785;SDS011;890;48.158;11.540;2022-10-16T12:47:36;1.50;;;1.40;;
1785;SDS011;890;48.158;11.540;2022-10-16T12:50:05;1.50;;;1.40;;
1785;SDS011;890;48.158;11.540;2022-10-16T12:53:00;2.37;;;2.17;;
1785;SDS011;890;48.158;11.540;2022-10-16T12:55:26;1.97;;;1.60;;
1785;SDS011;890;48.158;11.540;2022-10-16T12:58:06;2.10;;;2.00;;
1785;SDS011;890;48.158;11.540;2022-10-16T13:00:44;3.30;;;1.30;;
1785;SDS011;890;48.158;11.540;2022-10-16T13:14:14;1.90;;;1.80;;
1785;SDS011;890;48.158;11.540;2022-10-16T13:22:35;1.30;;;1.20;;
1785;SDS011;890;48.158;11.540;2022-10-16T13:28:01;1.83;;;1.07;;
1785;SDS011;890;48.158;11.540;2022-10-16T13:30:28;1.33;;;1.23;;
1785;SDS011;890;48.158;11.540;2022-10-16T13:35:59;1.10;;;1.03;;
1785;SDS011;890;48.158;11.540;2022-10-16T13:38:26;4.93;;;1.40;;
1785;SDS011;890;48.158;11.540;2022-10-16T13:43:22;1.77;;;1.53;;
1785;SDS011;890;48.158;11.540;2022-10-16T13:46:04;1.77;;;1.30;;
1785;SDS011;890;48.158;11.540;2022-10-16T13:48:37;1.73;;;1.23;;
1785;SDS011;890;48.158;11.540;2022-10-16T13:51:13;1.67;;;1.10;;
1785;SDS011;890;48.158;11.540;2022-10-16T13:53:41;1.27;;;1.17;;
1785;SDS011;890;48.158;11.540;2022-10-16T13:56:09;1.60;;;1.20;;
1785;SDS011;890;48.158;11.540;2022-10-16T13:58:37;3.23;;;1.60;;
1785;SDS011;890;48.158;11.540;2022-10-16T14:01:04;1.37;;;1.10;;
1785;SDS011;890;48.158;11.540;2022-10-16T14:03:38;1.20;;;1.10;;
1785;SDS011;890;48.158;11.540;2022-10-16T14:06:06;1.20;;;0.93;;
1785;SDS011;890;48.158;11.540;2022-10-16T14:08:40;1.07;;;0.97;;
1785;SDS011;890;48.158;11.540;2022-10-16T14:11:12;1.20;;;1.10;;
1785;SDS011;890;48.158;11.540;2022-10-16T14:13:45;1.30;;;1.10;;
1785;SDS011;890;48.158;11.540;2022-10-16T14:16:18;2.60;;;1.70;;
1785;SDS011;890;48.158;11.540;2022-10-16T14:18:51;1.37;;;1.27;;
1785;SDS011;890;48.158;11.540;2022-10-16T14:21:20;1.10;;;1.00;;
1785;SDS011;890;48.158;11.540;2022-10-16T14:23:46;1.40;;;1.00;;
1785;SDS011;890;48.158;11.540;2022-10-16T14:26:12;1.17;;;1.07;;
1785;SDS011;890;48.158;11.540;2022-10-16T14:28:40;5.60;;;2.60;;
1785;SDS011;890;48.158;11.540;2022-10-16T14:33:52;2.50;;;1.37;;
1785;SDS011;890;48.158;11.540;2022-10-16T14:36:17;1.10;;;0.93;;
1785;SDS011;890;48.158;11.540;2022-10-16T14:38:58;1.30;;;1.20;;
1785;SDS011;890;48.158;11.540;2022-10-16T14:41:26;1.97;;;1.10;;
1785;SDS011;890;48.158;11.540;2022-10-16T14:43:54;1.40;;;1.30;;
1785;SDS011;890;48.158;11.540;2022-10-16T14:46:21;3.17;;;2.40;;
1785;SDS011;890;48.158;11.540;2022-10-16T14:48:54;2.00;;;1.80;;
1785;SDS011;890;48.158;11.540;2022-10-16T14:51:27;2.67;;;1.70;;
1785;SDS011;890;48.158;11.540;2022-10-16T14:53:53;5.80;;;2.30;;
1785;SDS011;890;48.158;11.540;2022-10-16T14:56:20;1.73;;;1.63;;
1785;SDS011;890;48.158;11.540;2022-10-16T14:58:48;1.50;;;1.40;;
1785;SDS011;890;48.158;11.540;2022-10-16T15:01:15;2.67;;;1.60;;
1785;SDS011;890;48.158;11.540;2022-10-16T15:03:41;2.67;;;2.20;;
1785;SDS011;890;48.158;11.540;2022-10-16T15:06:13;2.63;;;2.30;;
1785;SDS011;890;48.158;11.540;2022-10-16T15:11:40;1.60;;;1.50;;
1785;SDS011;890;48.158;11.540;2022-10-16T15:14:08;1.90;;;1.70;;
1785;SDS011;890;48.158;11.540;2022-10-16T15:16:37;2.63;;;1.60;;
1785;SDS011;890;48.158;11.540;2022-10-16T15:19:02;1.57;;;1.40;;
1785;SDS011;890;48.158;11.540;2022-10-16T15:21:29;2.40;;;1.73;;
1785;SDS011;890;48.158;11.540;2022-10-16T15:23:57;2.20;;;1.97;;
1785;SDS011;890;48.158;11.540;2022-10-16T15:26:27;3.10;;;2.50;;
1785;SDS011;890;48.158;11.540;2022-10-16T15:28:54;2.17;;;1.80;;
1785;SDS011;890;48.158;11.540;2022-10-16T15:31:20;2.87;;;1.70;;
1785;SDS011;890;48.158;11.540;2022-10-16T15:33:49;2.50;;;2.30;;
1785;SDS011;890;48.158;11.540;2022-10-16T15:36:24;2.07;;;1.87;;
1785;SDS011;890;48.158;11.540;2022-10-16T15:38:54;1.70;;;1.60;;
1785;SDS011;890;48.158;11.540;2022-10-16T15:41:20;1.70;;;1.60;;
1785;SDS011;890;48.158;11.540;2022-10-16T15:43:47;1.93;;;1.63;;
1785;SDS011;890;48.158;11.540;2022-10-16T15:46:14;1.80;;;1.47;;
1785;SDS011;890;48.158;11.540;2022-10-16T15:48:40;2.33;;;1.63;;
1785;SDS011;890;48.158;11.540;2022-10-16T15:51:06;2.57;;;2.07;;
1785;SDS011;890;48.158;11.540;2022-10-16T15:53:33;2.23;;;2.00;;
1785;SDS011;890;48.158;11.540;2022-10-16T15:56:01;3.37;;;2.50;;
1785;SDS011;890;48.158;11.540;2022-10-16T15:58:28;3.27;;;2.97;;
1785;SDS011;890;48.158;11.540;2022-10-16T16:00:55;3.00;;;2.47;;
1785;SDS011;890;48.158;11.540;2022-10-16T16:03:21;4.93;;;2.40;;
1785;SDS011;890;48.158;11.540;2022-10-16T16:05:47;3.37;;;2.73;;
1785;SDS011;890;48.158;11.540;2022-10-16T16:08:13;4.00;;;2.77;;
1785;SDS011;890;48.158;11.540;2022-10-16T16:10:38;3.60;;;3.00;;
1785;SDS011;890;48.158;11.540;2022-10-16T16:13:04;5.17;;;2.27;;
1785;SDS011;890;48.158;11.540;2022-10-16T16:15:30;6.90;;;3.40;;
1785;SDS011;890;48.158;11.540;2022-10-16T16:17:55;4.40;;;2.70;;
1785;SDS011;890;48.158;11.540;2022-10-16T16:20:21;2.97;;;2.40;;
1785;SDS011;890;48.158;11.540;2022-10-16T16:22:47;4.33;;;3.93;;
1785;SDS011;890;48.158;11.540;2022-10-16T16:25:13;3.33;;;3.00;;
1785;SDS011;890;48.158;11.540;2022-10-16T16:27:39;4.30;;;3.63;;
1785;SDS011;890;48.158;11.540;2022-10-16T16:30:09;4.10;;;3.23;;
1785;SDS011;890;48.158;11.540;2022-10-16T16:32:36;3.87;;;3.03;;
1785;SDS011;890;48.158;11.540;2022-10-16T16:35:02;6.30;;;3.90;;
1785;SDS011;890;48.158;11.540;2022-10-16T16:37:28;3.60;;;3.23;;
1785;SDS011;890;48.158;11.540;2022-10-16T16:39:54;5.10;;;3.20;;
1785;SDS011;890;48.158;11.540;2022-10-16T16:42:23;5.13;;;3.93;;
1785;SDS011;890;48.158;11.540;2022-10-16T16:44:51;3.80;;;3.40;;
1785;SDS011;890;48.158;11.540;2022-10-16T16:47:18;3.70;;;3.03;;
1785;SDS011;890;48.158;11.540;2022-10-16T16:49:44;4.33;;;3.17;;
1785;SDS011;890;48.158;11.540;2022-10-16T16:52:11;4.30;;;3.70;;
1785;SDS011;890;48.158;11.540;2022-10-16T16:54:37;6.50;;;4.20;;
1785;SDS011;890;48.158;11.540;2022-10-16T16:57:02;4.57;;;3.57;;
1785;SDS011;890;48.158;11.540;2022-10-16T16:59:29;4.70;;;3.37;;
1785;SDS011;890;48.158;11.540;2022-10-16T17:01:57;4.23;;;3.53;;
1785;SDS011;890;48.158;11.540;2022-10-16T17:04:24;3.97;;;3.37;;
1785;SDS011;890;48.158;11.540;2022-10-16T17:06:50;7.17;;;3.43;;
1785;SDS011;890;48.158;11.540;2022-10-16T17:09:17;4.67;;;3.50;;
1785;SDS011;890;48.158;11.540;2022-10-16T17:11:42;6.90;;;3.93;;
1785;SDS011;890;48.158;11.540;2022-10-16T17:14:09;5.33;;;3.90;;
1785;SDS011;890;48.158;11.540;2022-10-16T17:16:35;4.40;;;3.10;;
1785;SDS011;890;48.158;11.540;2022-10-16T17:19:03;5.10;;;3.87;;
1785;SDS011;890;48.158;11.540;2022-10-16T17:21:33;4.93;;;3.10;;